Time;durP1;ratioP1;P1;durP2;ratioP2;P2;SDS_P1;SDS_P2;PMS_P1;PMS_P2;Temp;Humidity;BMP_temperature;BMP_pressure;BME280_temperature;BME280_humidity;BME280_pressure;Samples;Min_cycle;Max_cycle;Signal;HPM_P1;HPM_P2
2023/04/15 00:00:36;;;;;;;22.52;9.65;;;;;;;;;;5006455;28;20988;-75
2023/04/15 00:03:04;;;;;;;21.08;9.85;;;;;;;;;;5017074;28;20551;-75
2023/04/15 00:05:31;;;;;;;21.98;10.60;;;;;;;;;;5021067;28;21012;-75
2023/04/15 00:07:57;;;;;;;24.20;10.32;;;;;;;;;;5021533;28;20728;-75
2023/04/15 00:10:24;;;;;;;23.98;10.60;;;;;;;;;;5025977;28;20936;-75
2023/04/15 00:12:51;;;;;;;24.95;11.60;;;;;;;;;;5025792;28;20053;-75
2023/04/15 00:15:17;;;;;;;27.27;12.23;;;;;;;;;;5013877;28;20181;-75
2023/04/15 00:17:44;;;;;;;26.48;13.32;;;;;;;;;;5024220;28;20068;-75
2023/04/15 00:20:11;;;;;;;26.90;12.88;;;;;;;;;;5021165;28;20086;-75
2023/04/15 00:22:37;;;;;;;30.02;13.15;;;;;;;;;;5005871;28;20604;-75
2023/04/15 00:25:04;;;;;;;27.92;12.77;;;;;;;;;;5004866;28;20480;-76
2023/04/15 00:27:30;;;;;;;27.80;13.68;;;;;;;;;;5015830;28;20433;-75
2023/04/15 00:29:57;;;;;;;29.00;13.90;;;;;;;;;;5015786;28;20547;-75
2023/04/15 00:32:23;;;;;;;29.92;13.30;;;;;;;;;;5021044;28;20438;-75
2023/04/15 00:34:49;;;;;;;29.58;13.27;;;;;;;;;;5018496;28;20509;-75
2023/04/15 00:37:16;;;;;;;24.40;12.65;;;;;;;;;;5009673;28;20058;-75
2023/04/15 00:39:42;;;;;;;23.88;13.02;;;;;;;;;;5008693;28;20054;-75
2023/04/15 00:42:09;;;;;;;22.90;11.43;;;;;;;;;;5006201;28;20124;-76
2023/04/15 00:44:35;;;;;;;23.60;11.45;;;;;;;;;;5013053;28;20066;-75
2023/04/15 00:47:03;;;;;;;20.15;9.73;;;;;;;;;;5003200;28;20141;-75
2023/04/15 00:49:29;;;;;;;18.40;9.18;;;;;;;;;;5005485;28;20060;-75
2023/04/15 00:51:56;;;;;;;19.95;8.80;;;;;;;;;;5005314;28;20056;-75
2023/04/15 00:54:22;;;;;;;17.63;8.38;;;;;;;;;;5008598;28;20503;-75
2023/04/15 00:56:48;;;;;;;14.23;7.25;;;;;;;;;;5024120;28;20065;-75
2023/04/15 00:59:16;;;;;;;16.80;8.05;;;;;;;;;;5023104;28;20058;-75
2023/04/15 01:01:43;;;;;;;13.48;6.90;;;;;;;;;;5017069;28;20081;-75
2023/04/15 01:04:10;;;;;;;13.38;6.57;;;;;;;;;;5022279;28;20120;-75
2023/04/15 01:06:37;;;;;;;12.88;6.60;;;;;;;;;;5019300;28;20136;-76
2023/04/15 01:09:04;;;;;;;12.93;6.43;;;;;;;;;;5014319;28;20077;-75
2023/04/15 01:11:33;;;;;;;13.88;5.85;;;;;;;;;;5020627;28;20200;-75
2023/04/15 01:13:59;;;;;;;11.18;6.35;;;;;;;;;;5020760;28;20061;-75
2023/04/15 01:16:27;;;;;;;11.77;5.70;;;;;;;;;;5015098;28;20141;-75
2023/04/15 01:18:54;;;;;;;11.20;5.90;;;;;;;;;;5003358;28;20120;-76
2023/04/15 01:21:21;;;;;;;12.00;6.07;;;;;;;;;;5004707;28;20051;-75
2023/04/15 01:23:47;;;;;;;11.15;5.78;;;;;;;;;;5005648;28;20141;-75
2023/04/15 01:26:15;;;;;;;12.80;5.78;;;;;;;;;;5012384;28;20596;-75
2023/04/15 01:28:42;;;;;;;13.55;5.95;;;;;;;;;;5021864;28;20085;-75
2023/04/15 01:31:12;;;;;;;18.52;6.88;;;;;;;;;;5020336;28;20501;-75
2023/04/15 01:33:40;;;;;;;11.43;6.03;;;;;;;;;;5022894;28;20061;-75
2023/04/15 01:36:07;;;;;;;13.18;6.53;;;;;;;;;;5021795;28;20096;-75
2023/04/15 01:38:33;;;;;;;10.65;6.18;;;;;;;;;;5021663;28;20068;-75
2023/04/15 01:41:00;;;;;;;9.88;5.50;;;;;;;;;;5023028;28;20046;-76
2023/04/15 01:43:27;;;;;;;11.98;5.80;;;;;;;;;;5018514;28;20049;-75
2023/04/15 01:45:53;;;;;;;10.02;5.68;;;;;;;;;;5013628;28;20061;-75
2023/04/15 01:48:20;;;;;;;15.05;6.45;;;;;;;;;;5005755;28;20505;-75
2023/04/15 01:50:46;;;;;;;14.38;6.32;;;;;;;;;;5005665;28;20054;-75
2023/04/15 01:53:13;;;;;;;9.32;5.88;;;;;;;;;;5004219;28;20055;-75
2023/04/15 01:55:39;;;;;;;12.75;6.10;;;;;;;;;;5003871;28;20058;-75
2023/04/15 01:58:06;;;;;;;12.85;6.13;;;;;;;;;;5004461;28;20058;-76
2023/04/15 02:00:32;;;;;;;12.27;6.03;;;;;;;;;;5005448;28;20158;-76
2023/04/15 02:02:59;;;;;;;10.65;5.88;;;;;;;;;;5013974;28;20081;-76
2023/04/15 02:05:25;;;;;;;12.95;6.00;;;;;;;;;;5003926;28;20516;-76
2023/04/15 02:07:53;;;;;;;10.60;5.70;;;;;;;;;;5021089;28;20056;-75
2023/04/15 02:10:19;;;;;;;14.02;6.22;;;;;;;;;;5012290;28;20050;-76
2023/04/15 02:12:46;;;;;;;11.35;6.18;;;;;;;;;;5004338;28;20137;-75
2023/04/15 02:15:12;;;;;;;13.48;5.95;;;;;;;;;;5003616;28;20508;-76
2023/04/15 02:17:38;;;;;;;14.68;6.18;;;;;;;;;;5017141;28;20563;-75
2023/04/15 02:20:05;;;;;;;10.75;6.07;;;;;;;;;;5015414;28;20101;-75
2023/04/15 02:22:32;;;;;;;12.35;6.18;;;;;;;;;;5021471;28;21024;-75
2023/04/15 02:24:58;;;;;;;10.55;6.00;;;;;;;;;;5018387;28;20054;-75
2023/04/15 02:27:25;;;;;;;13.05;6.18;;;;;;;;;;5023127;28;20066;-75
2023/04/15 02:29:51;;;;;;;12.15;5.90;;;;;;;;;;5014042;28;20070;-75
2023/04/15 02:32:17;;;;;;;16.10;6.40;;;;;;;;;;5007593;28;20172;-76
2023/04/15 02:34:44;;;;;;;13.48;5.80;;;;;;;;;;5013465;28;20100;-75
2023/04/15 02:37:11;;;;;;;11.00;6.00;;;;;;;;;;5003451;28;20911;-75
2023/04/15 02:39:37;;;;;;;15.90;6.05;;;;;;;;;;5020772;28;20065;-75
2023/04/15 02:42:04;;;;;;;12.00;6.13;;;;;;;;;;5022088;28;20054;-76
2023/04/15 02:44:31;;;;;;;11.02;5.90;;;;;;;;;;5020357;28;20057;-76
2023/04/15 02:46:58;;;;;;;10.30;6.28;;;;;;;;;;5020706;28;20567;-75
2023/04/15 02:49:24;;;;;;;9.68;5.45;;;;;;;;;;5005359;28;20055;-76
2023/04/15 02:51:51;;;;;;;12.48;6.55;;;;;;;;;;5007300;28;20050;-75
2023/04/15 02:54:18;;;;;;;11.85;6.00;;;;;;;;;;5014379;28;20204;-76
2023/04/15 02:56:45;;;;;;;12.82;7.18;;;;;;;;;;5022657;28;20722;-76
2023/04/15 02:59:11;;;;;;;11.07;6.05;;;;;;;;;;5021950;28;20133;-76
2023/04/15 03:01:38;;;;;;;10.75;6.45;;;;;;;;;;5021960;28;20470;-75
2023/04/15 03:04:06;;;;;;;13.45;6.55;;;;;;;;;;5012296;28;20065;-76
2023/04/15 03:06:33;;;;;;;11.88;6.28;;;;;;;;;;5000925;28;20090;-76
2023/04/15 03:09:01;;;;;;;10.32;6.45;;;;;;;;;;5020746;28;20081;-76
2023/04/15 03:11:28;;;;;;;10.02;5.97;;;;;;;;;;5014678;28;20065;-75
2023/04/15 03:13:54;;;;;;;15.40;6.50;;;;;;;;;;5021976;28;20058;-75
2023/04/15 03:16:21;;;;;;;13.20;6.20;;;;;;;;;;5021084;28;20607;-75
2023/04/15 03:18:47;;;;;;;14.80;6.97;;;;;;;;;;5020209;28;20060;-75
2023/04/15 03:21:13;;;;;;;10.43;6.05;;;;;;;;;;5002994;28;20185;-76
2023/04/15 03:23:40;;;;;;;14.32;6.30;;;;;;;;;;5015262;28;20050;-76
2023/04/15 03:26:06;;;;;;;11.98;6.15;;;;;;;;;;5025392;28;20050;-76
2023/04/15 03:28:32;;;;;;;12.05;6.45;;;;;;;;;;5024055;28;20501;-76
2023/04/15 03:30:59;;;;;;;10.98;6.15;;;;;;;;;;5016818;28;20081;-75
2023/04/15 03:33:25;;;;;;;10.82;6.15;;;;;;;;;;5006034;28;20051;-75
2023/04/15 03:35:52;;;;;;;11.80;5.82;;;;;;;;;;5019499;28;20451;-75
2023/04/15 03:38:18;;;;;;;12.45;6.78;;;;;;;;;;5025232;28;20970;-75
2023/04/15 03:40:45;;;;;;;12.82;6.70;;;;;;;;;;5016110;28;20054;-76
2023/04/15 03:43:12;;;;;;;14.05;5.72;;;;;;;;;;5019676;28;20168;-75
2023/04/15 03:45:38;;;;;;;12.20;6.70;;;;;;;;;;5024328;28;20062;-75
2023/04/15 03:48:05;;;;;;;12.90;6.95;;;;;;;;;;5022421;28;20085;-76
2023/04/15 03:50:43;;;;;;;13.63;6.90;;;;;;;;;;5022031;28;20054;-75
2023/04/15 03:53:09;;;;;;;10.85;6.75;;;;;;;;;;5023526;28;20054;-76
2023/04/15 03:55:35;;;;;;;12.23;6.78;;;;;;;;;;5010200;28;20058;-76
2023/04/15 03:58:02;;;;;;;12.50;6.82;;;;;;;;;;5014121;28;20049;-75
2023/04/15 04:00:28;;;;;;;13.23;6.15;;;;;;;;;;5022066;28;20104;-76
2023/04/15 04:02:55;;;;;;;11.73;5.93;;;;;;;;;;5022359;28;20069;-75
2023/04/15 04:05:21;;;;;;;16.55;6.70;;;;;;;;;;5024571;28;20533;-76
2023/04/15 04:07:48;;;;;;;12.23;5.72;;;;;;;;;;5025106;28;20085;-76
2023/04/15 04:10:14;;;;;;;10.65;6.00;;;;;;;;;;5024095;28;20061;-75
2023/04/15 04:12:41;;;;;;;16.75;6.40;;;;;;;;;;5020566;28;20133;-75
2023/04/15 04:15:07;;;;;;;11.52;6.18;;;;;;;;;;5014150;28;20060;-75
2023/04/15 04:17:33;;;;;;;11.70;6.32;;;;;;;;;;5017182;28;20097;-76
2023/04/15 04:20:00;;;;;;;15.60;6.07;;;;;;;;;;5006391;28;20054;-75
2023/04/15 04:22:26;;;;;;;12.80;6.57;;;;;;;;;;5014306;28;20694;-75
2023/04/15 04:24:53;;;;;;;12.50;6.45;;;;;;;;;;5023495;28;20057;-76
2023/04/15 04:27:19;;;;;;;14.20;7.20;;;;;;;;;;5022344;28;20054;-76
2023/04/15 04:29:46;;;;;;;13.23;6.60;;;;;;;;;;5023527;28;20065;-75
2023/04/15 04:32:13;;;;;;;13.43;6.55;;;;;;;;;;5022762;28;20081;-75
2023/04/15 04:34:40;;;;;;;11.38;6.35;;;;;;;;;;5014919;28;20173;-76
2023/04/15 04:37:06;;;;;;;14.00;6.68;;;;;;;;;;5022180;28;20081;-76
2023/04/15 04:39:33;;;;;;;11.85;6.47;;;;;;;;;;5006488;28;20059;-76
2023/04/15 04:42:00;;;;;;;12.65;6.38;;;;;;;;;;5011842;28;20058;-75
2023/04/15 04:44:26;;;;;;;12.45;6.80;;;;;;;;;;5015192;28;20066;-75
2023/04/15 04:46:52;;;;;;;12.75;7.03;;;;;;;;;;5024891;28;20550;-76
2023/04/15 04:49:19;;;;;;;12.90;6.50;;;;;;;;;;5006305;28;20072;-76
2023/04/15 04:51:47;;;;;;;12.60;6.55;;;;;;;;;;5005329;28;20532;-76
2023/04/15 04:54:13;;;;;;;13.23;6.55;;;;;;;;;;5013545;28;20097;-75
2023/04/15 04:56:40;;;;;;;11.23;6.50;;;;;;;;;;5025408;28;20058;-76
2023/04/15 04:59:06;;;;;;;12.93;6.97;;;;;;;;;;5020067;28;20070;-76
2023/04/15 05:01:33;;;;;;;13.30;7.00;;;;;;;;;;5024061;28;20606;-76
2023/04/15 05:03:59;;;;;;;12.48;6.15;;;;;;;;;;5016159;28;20097;-75
2023/04/15 05:06:26;;;;;;;13.40;6.47;;;;;;;;;;5019662;28;20104;-75
2023/04/15 05:08:52;;;;;;;12.00;6.60;;;;;;;;;;5022490;28;20104;-76
2023/04/15 05:11:19;;;;;;;10.80;6.60;;;;;;;;;;5009423;28;20169;-76
2023/04/15 05:13:46;;;;;;;15.68;7.15;;;;;;;;;;5017409;28;20058;-75
2023/04/15 05:16:12;;;;;;;14.00;7.00;;;;;;;;;;5005257;28;20060;-76
2023/04/15 05:18:38;;;;;;;17.63;6.88;;;;;;;;;;5022741;28;20591;-76
2023/04/15 05:21:05;;;;;;;12.77;6.90;;;;;;;;;;5021981;28;20061;-75
2023/04/15 05:23:32;;;;;;;12.45;7.22;;;;;;;;;;5021402;28;20109;-76
2023/04/15 05:25:58;;;;;;;15.23;7.32;;;;;;;;;;5021647;28;20057;-76
2023/04/15 05:28:25;;;;;;;15.60;6.97;;;;;;;;;;5007912;28;20645;-76
2023/04/15 05:30:51;;;;;;;14.07;6.70;;;;;;;;;;5022491;28;20050;-76
2023/04/15 05:33:18;;;;;;;15.88;7.20;;;;;;;;;;5020846;28;20061;-76
2023/04/15 05:35:44;;;;;;;12.93;6.80;;;;;;;;;;5007221;28;20505;-76
2023/04/15 05:38:10;;;;;;;15.15;7.47;;;;;;;;;;5021057;28;20058;-76
2023/04/15 05:40:37;;;;;;;14.48;6.72;;;;;;;;;;5019505;28;20054;-75
2023/04/15 05:43:03;;;;;;;14.43;7.20;;;;;;;;;;5007828;28;20100;-76
2023/04/15 05:45:29;;;;;;;14.85;6.80;;;;;;;;;;5003351;28;20061;-76
2023/04/15 05:47:56;;;;;;;12.90;6.85;;;;;;;;;;5018598;28;20504;-76
2023/04/15 05:50:22;;;;;;;14.95;7.03;;;;;;;;;;5036963;28;20558;-76
2023/04/15 05:52:48;;;;;;;15.60;7.32;;;;;;;;;;5025726;28;20058;-75
2023/04/15 05:55:15;;;;;;;14.30;7.13;;;;;;;;;;5015063;28;20058;-76
2023/04/15 05:57:41;;;;;;;13.82;7.18;;;;;;;;;;5017455;28;20046;-76
2023/04/15 06:00:08;;;;;;;13.70;7.03;;;;;;;;;;5014887;28;20058;-75
2023/04/15 06:02:35;;;;;;;13.32;7.10;;;;;;;;;;5004705;28;20141;-76
2023/04/15 06:05:02;;;;;;;15.32;7.43;;;;;;;;;;5009686;28;21096;-76
2023/04/15 06:07:28;;;;;;;17.73;7.55;;;;;;;;;;5007132;28;20066;-76
2023/04/15 06:09:55;;;;;;;13.73;7.60;;;;;;;;;;5016453;28;20161;-76
2023/04/15 06:12:21;;;;;;;13.07;7.10;;;;;;;;;;5014475;28;20053;-76
2023/04/15 06:14:47;;;;;;;15.10;7.82;;;;;;;;;;5017084;28;20457;-76
2023/04/15 06:17:14;;;;;;;17.05;7.32;;;;;;;;;;5016816;28;20078;-76
2023/04/15 06:19:40;;;;;;;16.33;7.30;;;;;;;;;;5020721;28;20064;-76
2023/04/15 06:22:07;;;;;;;13.60;7.18;;;;;;;;;;5020169;28;20065;-76
2023/04/15 06:24:33;;;;;;;13.45;7.05;;;;;;;;;;5012547;28;20050;-76
2023/04/15 06:27:01;;;;;;;13.00;7.75;;;;;;;;;;5020121;28;20128;-76
2023/04/15 06:29:27;;;;;;;16.17;7.50;;;;;;;;;;5020657;28;20769;-76
2023/04/15 06:31:55;;;;;;;15.75;8.10;;;;;;;;;;5021298;28;20045;-76
2023/04/15 06:34:22;;;;;;;17.23;8.15;;;;;;;;;;5015528;28;20120;-76
2023/04/15 06:36:48;;;;;;;14.00;7.75;;;;;;;;;;5003704;28;20061;-76
2023/04/15 06:39:14;;;;;;;14.50;7.05;;;;;;;;;;5012048;28;20061;-76
2023/04/15 06:41:41;;;;;;;16.70;8.60;;;;;;;;;;5007332;28;20897;-76
2023/04/15 06:44:07;;;;;;;13.50;7.75;;;;;;;;;;5004664;28;20133;-77
2023/04/15 06:46:34;;;;;;;15.30;7.97;;;;;;;;;;5015616;28;20088;-76
2023/04/15 06:49:00;;;;;;;15.25;7.13;;;;;;;;;;5009721;28;20058;-76
2023/04/15 06:51:27;;;;;;;15.80;8.63;;;;;;;;;;5008433;28;20057;-76
2023/04/15 06:53:53;;;;;;;15.35;8.38;;;;;;;;;;5014966;28;20137;-76
2023/04/15 06:56:20;;;;;;;16.38;8.00;;;;;;;;;;5021013;28;20161;-76
2023/04/15 06:58:47;;;;;;;16.92;8.52;;;;;;;;;;5019822;28;20050;-76
2023/04/15 07:01:13;;;;;;;16.27;8.18;;;;;;;;;;5024193;28;20057;-76
2023/04/15 07:03:40;;;;;;;16.02;7.70;;;;;;;;;;5022411;28;20081;-76
2023/04/15 07:06:08;;;;;;;13.60;7.55;;;;;;;;;;5007901;28;20407;-76
2023/04/15 07:08:34;;;;;;;13.10;8.07;;;;;;;;;;5014871;28;20429;-76
2023/04/15 07:11:01;;;;;;;13.60;7.30;;;;;;;;;;5015815;28;20054;-76
2023/04/15 07:13:29;;;;;;;18.20;7.78;;;;;;;;;;5016170;28;20062;-76
2023/04/15 07:15:56;;;;;;;15.55;8.35;;;;;;;;;;5012904;28;20140;-76
2023/04/15 07:18:22;;;;;;;15.70;8.27;;;;;;;;;;5025089;28;20599;-76
2023/04/15 07:20:49;;;;;;;15.23;8.00;;;;;;;;;;5025491;28;20057;-76
2023/04/15 07:23:15;;;;;;;14.43;7.65;;;;;;;;;;5016677;28;20137;-76
2023/04/15 07:25:41;;;;;;;14.75;7.72;;;;;;;;;;5024069;28;20053;-76
2023/04/15 07:28:08;;;;;;;15.00;6.80;;;;;;;;;;5017169;28;20057;-76
2023/04/15 07:30:34;;;;;;;13.95;7.78;;;;;;;;;;5022046;28;20511;-76
2023/04/15 07:33:01;;;;;;;13.38;7.30;;;;;;;;;;5020243;28;20097;-75
2023/04/15 07:35:28;;;;;;;16.55;6.97;;;;;;;;;;5020657;28;20064;-76
2023/04/15 07:37:55;;;;;;;13.07;6.93;;;;;;;;;;5023251;28;20066;-76
2023/04/15 07:40:21;;;;;;;13.65;6.97;;;;;;;;;;5011603;28;20145;-76
2023/04/15 07:42:48;;;;;;;12.60;6.82;;;;;;;;;;5021770;28;20050;-76
2023/04/15 07:45:15;;;;;;;13.27;6.80;;;;;;;;;;5019806;28;20136;-76
2023/04/15 07:47:41;;;;;;;12.70;6.60;;;;;;;;;;5023802;28;20500;-76
2023/04/15 07:50:09;;;;;;;12.98;6.78;;;;;;;;;;5025977;28;20054;-76
2023/04/15 07:52:39;;;;;;;11.45;6.47;;;;;;;;;;5014902;28;20491;-76
2023/04/15 07:55:07;;;;;;;11.68;6.63;;;;;;;;;;5010596;28;20141;-76
2023/04/15 07:57:34;;;;;;;10.38;6.25;;;;;;;;;;5008381;28;20158;-76
2023/04/15 08:00:00;;;;;;;9.63;5.22;;;;;;;;;;5016699;28;20054;-75
2023/04/15 08:02:27;;;;;;;12.18;5.53;;;;;;;;;;5019228;28;20098;-76
2023/04/15 08:04:53;;;;;;;10.52;5.90;;;;;;;;;;5017739;28;20575;-76
2023/04/15 08:07:20;;;;;;;8.73;5.13;;;;;;;;;;5021320;28;20057;-76
2023/04/15 08:09:47;;;;;;;10.60;5.68;;;;;;;;;;5014495;28;20850;-77
2023/04/15 08:12:13;;;;;;;13.68;5.20;;;;;;;;;;5008374;28;20101;-76
2023/04/15 08:14:40;;;;;;;11.75;5.63;;;;;;;;;;5006313;28;20058;-76
2023/04/15 08:17:06;;;;;;;9.52;4.72;;;;;;;;;;5019504;28;20061;-76
2023/04/15 08:19:33;;;;;;;9.23;4.88;;;;;;;;;;5027451;28;20089;-76
2023/04/15 08:21:59;;;;;;;11.73;4.30;;;;;;;;;;5025567;28;20049;-77
2023/04/15 08:24:26;;;;;;;8.98;4.40;;;;;;;;;;5026553;28;20050;-76
2023/04/15 08:26:52;;;;;;;8.35;3.95;;;;;;;;;;5026331;28;20081;-77
2023/04/15 08:29:19;;;;;;;9.25;4.10;;;;;;;;;;5025029;28;20054;-76
2023/04/15 08:31:46;;;;;;;8.52;4.15;;;;;;;;;;5023469;28;20509;-76
2023/04/15 08:34:13;;;;;;;7.55;3.97;;;;;;;;;;5026176;28;20054;-76
2023/04/15 08:36:42;;;;;;;8.07;4.05;;;;;;;;;;5026433;28;20096;-76
2023/04/15 08:39:08;;;;;;;9.23;3.63;;;;;;;;;;5025002;28;20136;-76
2023/04/15 08:41:48;;;;;;;8.95;4.18;;;;;;;;;;5025867;28;20062;-76
2023/04/15 08:44:15;;;;;;;5.38;3.47;;;;;;;;;;5025569;28;20065;-76
2023/04/15 08:46:41;;;;;;;7.47;3.30;;;;;;;;;;5012556;28;20061;-76
2023/04/15 08:49:09;;;;;;;7.15;3.40;;;;;;;;;;5026056;28;20053;-76
2023/04/15 08:51:36;;;;;;;6.68;3.00;;;;;;;;;;5017964;28;20133;-76
2023/04/15 08:54:03;;;;;;;6.70;3.60;;;;;;;;;;5006397;28;20062;-76
2023/04/15 08:56:31;;;;;;;8.05;3.58;;;;;;;;;;5006018;28;20058;-76
2023/04/15 08:58:59;;;;;;;7.35;3.85;;;;;;;;;;5004953;28;20502;-76
2023/04/15 09:01:26;;;;;;;7.05;2.80;;;;;;;;;;5016712;28;20133;-76
2023/04/15 09:03:55;;;;;;;7.05;3.42;;;;;;;;;;5026269;28;20049;-77
2023/04/15 09:06:22;;;;;;;6.63;2.93;;;;;;;;;;5022415;28;20555;-76
2023/04/15 09:08:49;;;;;;;6.45;3.45;;;;;;;;;;5022724;28;20588;-76
2023/04/15 09:11:16;;;;;;;6.88;3.20;;;;;;;;;;5009629;28;20062;-76
2023/04/15 09:13:45;;;;;;;6.70;3.40;;;;;;;;;;5006030;28;20082;-76
2023/04/15 09:16:12;;;;;;;10.48;3.65;;;;;;;;;;5017455;28;20053;-76
2023/04/15 09:18:38;;;;;;;7.82;3.40;;;;;;;;;;5013170;28;20127;-76
2023/04/15 09:21:10;;;;;;;7.13;3.60;;;;;;;;;;5024938;28;20058;-76
2023/04/15 09:23:37;;;;;;;8.07;4.13;;;;;;;;;;5018164;28;20493;-77
2023/04/15 09:26:04;;;;;;;10.15;3.83;;;;;;;;;;5024859;28;20145;-76
2023/04/15 09:28:32;;;;;;;9.68;3.83;;;;;;;;;;5022432;28;20051;-76
2023/04/15 09:30:59;;;;;;;7.63;3.78;;;;;;;;;;5023833;28;20709;-76
2023/04/15 09:33:26;;;;;;;8.95;4.35;;;;;;;;;;5021151;28;20054;-76
2023/04/15 09:36:00;;;;;;;6.95;3.70;;;;;;;;;;5013213;28;20133;-77
2023/04/15 09:38:27;;;;;;;7.57;3.78;;;;;;;;;;5022904;28;20085;-76
2023/04/15 09:40:53;;;;;;;7.32;3.50;;;;;;;;;;5023509;28;20054;-76
2023/04/15 09:43:20;;;;;;;9.50;4.78;;;;;;;;;;5008285;28;20513;-76
2023/04/15 09:45:51;;;;;;;7.22;3.70;;;;;;;;;;5015507;28;20424;-76
2023/04/15 09:48:17;;;;;;;7.10;3.50;;;;;;;;;;5020827;28;20065;-76
2023/04/15 09:50:43;;;;;;;6.10;3.42;;;;;;;;;;5022097;28;20576;-76
2023/04/15 09:53:11;;;;;;;7.45;3.25;;;;;;;;;;5008913;28;20144;-76
2023/04/15 09:55:37;;;;;;;5.38;2.80;;;;;;;;;;5024473;28;20065;-76
2023/04/15 09:58:16;;;;;;;6.47;3.00;;;;;;;;;;5017191;28;20164;-76
2023/04/15 10:00:43;;;;;;;5.90;3.17;;;;;;;;;;5024706;28;20161;-76
2023/04/15 10:03:10;;;;;;;8.40;3.28;;;;;;;;;;5024637;28;20078;-76
2023/04/15 10:05:37;;;;;;;7.75;3.65;;;;;;;;;;5022657;28;20132;-76
2023/04/15 10:08:04;;;;;;;7.47;3.47;;;;;;;;;;5011893;28;20050;-76
2023/04/15 10:10:32;;;;;;;8.63;3.63;;;;;;;;;;5021528;28;20873;-76
2023/04/15 10:12:58;;;;;;;6.30;3.53;;;;;;;;;;5003332;28;20054;-77
2023/04/15 10:15:25;;;;;;;8.02;3.42;;;;;;;;;;5004181;28;20062;-76
2023/04/15 10:17:52;;;;;;;5.50;3.05;;;;;;;;;;5003868;28;20134;-76
2023/04/15 10:20:19;;;;;;;6.90;3.38;;;;;;;;;;5004648;28;20046;-76
2023/04/15 10:22:46;;;;;;;6.70;2.95;;;;;;;;;;5002908;28;20054;-76
2023/04/15 10:25:14;;;;;;;6.20;2.88;;;;;;;;;;5004929;28;20062;-76
2023/04/15 10:27:41;;;;;;;6.25;2.95;;;;;;;;;;5012701;28;20062;-76
2023/04/15 10:30:08;;;;;;;5.30;2.70;;;;;;;;;;5004773;28;20141;-76
2023/04/15 10:32:35;;;;;;;6.97;2.60;;;;;;;;;;5010843;28;20053;-76
2023/04/15 10:35:03;;;;;;;5.68;2.50;;;;;;;;;;5010147;28;20054;-76
2023/04/15 10:37:36;;;;;;;6.43;2.50;;;;;;;;;;5011819;28;20054;-76
2023/04/15 10:40:21;;;;;;;5.57;2.70;;;;;;;;;;5020812;28;20611;-76
2023/04/15 10:42:48;;;;;;;4.82;2.45;;;;;;;;;;5022394;28;20204;-76
2023/04/15 10:45:15;;;;;;;12.05;3.00;;;;;;;;;;5012129;28;20109;-76
2023/04/15 10:47:42;;;;;;;5.75;2.65;;;;;;;;;;5022707;28;20057;-76
2023/04/15 10:50:09;;;;;;;5.70;2.58;;;;;;;;;;5014669;28;20097;-76
2023/04/15 10:52:39;;;;;;;5.00;2.53;;;;;;;;;;5004644;28;20058;-76
2023/04/15 10:55:14;;;;;;;4.90;2.67;;;;;;;;;;5004038;28;20101;-76
2023/04/15 10:57:41;;;;;;;4.88;2.38;;;;;;;;;;5005638;28;20531;-76
2023/04/15 11:00:08;;;;;;;7.65;2.85;;;;;;;;;;5003349;28;22146;-76
2023/04/15 11:02:38;;;;;;;5.93;2.75;;;;;;;;;;5009179;28;20058;-76
2023/04/15 11:05:06;;;;;;;6.10;3.10;;;;;;;;;;5008656;28;20510;-76
2023/04/15 11:07:37;;;;;;;5.43;2.28;;;;;;;;;;5021883;28;20064;-76
2023/04/15 11:10:24;;;;;;;5.03;2.58;;;;;;;;;;5022046;28;20990;-76
2023/04/15 11:12:51;;;;;;;3.97;2.30;;;;;;;;;;5018917;28;20054;-76
2023/04/15 11:15:33;;;;;;;4.70;2.20;;;;;;;;;;5005407;28;20783;-76
2023/04/15 11:18:08;;;;;;;6.38;2.30;;;;;;;;;;5018416;28;20061;-76
2023/04/15 11:20:35;;;;;;;6.38;2.47;;;;;;;;;;5023819;28;20058;-76
2023/04/15 11:23:03;;;;;;;4.97;2.45;;;;;;;;;;5010032;28;20145;-76
2023/04/15 11:25:40;;;;;;;6.47;2.35;;;;;;;;;;5022769;28;20065;-76
2023/04/15 11:28:07;;;;;;;5.10;2.40;;;;;;;;;;5020489;28;20060;-76
2023/04/15 11:30:34;;;;;;;4.28;2.13;;;;;;;;;;5023136;28;20214;-76
2023/04/15 11:33:02;;;;;;;4.47;2.13;;;;;;;;;;5021939;28;20674;-76
2023/04/15 11:35:29;;;;;;;4.57;2.15;;;;;;;;;;5015506;28;20054;-76
2023/04/15 11:37:55;;;;;;;4.50;2.05;;;;;;;;;;5003497;28;20046;-76
2023/04/15 11:40:22;;;;;;;4.40;1.85;;;;;;;;;;5006686;28;20133;-76
2023/04/15 11:43:07;;;;;;;5.78;1.77;;;;;;;;;;5004079;28;20080;-76
2023/04/15 11:45:34;;;;;;;4.78;2.20;;;;;;;;;;5005660;28;20058;-76
2023/04/15 11:48:12;;;;;;;4.75;2.38;;;;;;;;;;5006982;28;20054;-76
2023/04/15 11:50:39;;;;;;;4.68;2.00;;;;;;;;;;5006201;28;20069;-76
2023/04/15 11:53:07;;;;;;;6.22;2.10;;;;;;;;;;5018968;28;20062;-76
2023/04/15 11:55:45;;;;;;;4.20;2.33;;;;;;;;;;5011738;28;20262;-76
2023/04/15 11:58:12;;;;;;;4.03;2.00;;;;;;;;;;5020481;28;20802;-76
2023/04/15 12:00:45;;;;;;;4.22;1.95;;;;;;;;;;5025787;28;20135;-76
2023/04/15 12:03:20;;;;;;;4.10;1.80;;;;;;;;;;5006814;28;20177;-76
2023/04/15 12:06:07;;;;;;;5.45;2.08;;;;;;;;;;5006714;28;20054;-76
2023/04/15 12:08:52;;;;;;;6.00;2.03;;;;;;;;;;5006133;28;20135;-76
2023/04/15 12:11:25;;;;;;;4.85;2.30;;;;;;;;;;5015078;28;20050;-76
2023/04/15 12:14:02;;;;;;;6.68;2.33;;;;;;;;;;5007034;28;20098;-76
2023/04/15 12:16:29;;;;;;;4.35;1.92;;;;;;;;;;5016089;28;20065;-76
2023/04/15 12:18:56;;;;;;;5.90;2.15;;;;;;;;;;5014232;28;20130;-76
2023/04/15 12:21:23;;;;;;;4.63;1.80;;;;;;;;;;5006748;28;20783;-76
2023/04/15 12:23:51;;;;;;;5.95;1.90;;;;;;;;;;5010555;28;20060;-76
2023/04/15 12:26:24;;;;;;;5.53;1.70;;;;;;;;;;5019855;28;20054;-76
2023/04/15 12:28:55;;;;;;;4.60;1.85;;;;;;;;;;5018366;28;20049;-77
2023/04/15 12:31:22;;;;;;;4.30;1.55;;;;;;;;;;5007663;28;20477;-77
2023/04/15 12:33:48;;;;;;;5.90;1.63;;;;;;;;;;5020928;28;20057;-77
2023/04/15 12:36:15;;;;;;;4.95;1.63;;;;;;;;;;5016977;28;20061;-77
2023/04/15 12:38:41;;;;;;;3.22;1.50;;;;;;;;;;5020501;28;20054;-78
2023/04/15 12:41:08;;;;;;;5.00;1.70;;;;;;;;;;5011911;28;20065;-78
2023/04/15 12:43:34;;;;;;;3.58;1.50;;;;;;;;;;5021893;28;20068;-78
2023/04/15 12:46:01;;;;;;;4.50;1.80;;;;;;;;;;5017933;28;20466;-77
2023/04/15 12:48:27;;;;;;;3.75;1.40;;;;;;;;;;5013156;28;20155;-77
2023/04/15 12:50:54;;;;;;;5.25;1.40;;;;;;;;;;5018273;28;20081;-76
2023/04/15 12:53:20;;;;;;;4.70;1.80;;;;;;;;;;5018203;28;20058;-76
2023/04/15 12:55:47;;;;;;;5.97;2.17;;;;;;;;;;5017907;28;20140;-76
2023/04/15 12:58:13;;;;;;;5.93;2.28;;;;;;;;;;5024492;28;20054;-74
2023/04/15 13:00:40;;;;;;;7.22;2.42;;;;;;;;;;5022929;28;20042;-77
2023/04/15 13:03:06;;;;;;;4.47;2.00;;;;;;;;;;5029633;28;20054;-77
2023/04/15 13:05:33;;;;;;;3.55;1.75;;;;;;;;;;5022805;28;20056;-77
2023/04/15 13:07:59;;;;;;;8.68;3.47;;;;;;;;;;5009039;28;20061;-77
2023/04/15 13:10:27;;;;;;;6.22;2.38;;;;;;;;;;5018772;28;20599;-77
2023/04/15 13:12:55;;;;;;;6.72;2.10;;;;;;;;;;5010568;28;20062;-77
2023/04/15 13:15:21;;;;;;;7.15;2.72;;;;;;;;;;5009750;28;20539;-77
2023/04/15 13:17:49;;;;;;;4.20;1.60;;;;;;;;;;5022036;28;20049;-76
2023/04/15 13:20:16;;;;;;;6.82;2.03;;;;;;;;;;5014216;28;20149;-77
2023/04/15 13:22:42;;;;;;;5.10;1.90;;;;;;;;;;5013246;28;20064;-76
2023/04/15 13:25:11;;;;;;;4.32;1.50;;;;;;;;;;5014160;28;20052;-76
2023/04/15 13:27:37;;;;;;;4.63;1.70;;;;;;;;;;5017498;28;20054;-76
2023/04/15 13:30:04;;;;;;;4.32;1.90;;;;;;;;;;5006439;28;20082;-76
2023/04/15 13:32:31;;;;;;;4.75;2.13;;;;;;;;;;5014345;28;20058;-76
2023/04/15 13:34:58;;;;;;;4.53;1.90;;;;;;;;;;5022620;28;20060;-77
2023/04/15 13:37:25;;;;;;;5.32;2.10;;;;;;;;;;5012366;28;20133;-76
2023/04/15 13:39:51;;;;;;;5.38;2.08;;;;;;;;;;5013762;28;20061;-76
2023/04/15 13:42:18;;;;;;;4.65;1.80;;;;;;;;;;5018422;28;20149;-76
2023/04/15 13:44:44;;;;;;;4.40;1.63;;;;;;;;;;5015773;28;20056;-76
2023/04/15 13:47:11;;;;;;;5.32;1.65;;;;;;;;;;5013013;28;20136;-75
2023/04/15 13:49:38;;;;;;;6.68;1.90;;;;;;;;;;5023440;28;20058;-75
2023/04/15 13:52:04;;;;;;;5.00;1.75;;;;;;;;;;5017573;28;20089;-75
2023/04/15 13:54:31;;;;;;;4.20;1.40;;;;;;;;;;5008642;28;20064;-75
2023/04/15 13:57:03;;;;;;;3.33;1.38;;;;;;;;;;5012260;28;20073;-75
2023/04/15 13:59:30;;;;;;;4.22;1.50;;;;;;;;;;5012806;28;20505;-75
2023/04/15 14:01:56;;;;;;;6.05;1.30;;;;;;;;;;5020918;28;20576;-75
2023/04/15 14:04:23;;;;;;;5.78;1.40;;;;;;;;;;5023407;28;20060;-75
2023/04/15 14:06:49;;;;;;;2.90;1.10;;;;;;;;;;5020948;28;20173;-75
2023/04/15 14:09:16;;;;;;;3.70;1.20;;;;;;;;;;5009861;28;20050;-75
2023/04/15 14:11:42;;;;;;;5.10;1.40;;;;;;;;;;5021980;28;20135;-75
2023/04/15 14:14:08;;;;;;;2.28;0.90;;;;;;;;;;5009145;28;20532;-75
2023/04/15 14:16:35;;;;;;;3.50;1.30;;;;;;;;;;5013173;28;20081;-75
2023/04/15 14:19:01;;;;;;;3.72;1.33;;;;;;;;;;5018719;28;20062;-75
2023/04/15 14:21:30;;;;;;;4.05;1.65;;;;;;;;;;5010902;28;20192;-75
2023/04/15 14:23:57;;;;;;;4.18;1.60;;;;;;;;;;5023579;28;20050;-75
2023/04/15 14:26:23;;;;;;;5.30;1.50;;;;;;;;;;5008410;28;20682;-75
2023/04/15 14:28:50;;;;;;;3.67;1.30;;;;;;;;;;5016174;28;20433;-76
2023/04/15 14:31:17;;;;;;;7.40;1.50;;;;;;;;;;5013302;28;20080;-76
2023/04/15 14:33:45;;;;;;;4.75;1.80;;;;;;;;;;5015604;28;20065;-76
2023/04/15 14:36:11;;;;;;;6.82;1.63;;;;;;;;;;5017185;28;20054;-76